createdAt,value
2023-01-09T00:00:26.860Z,77.40
2023-01-09T00:02:56.045Z,77.40
2023-01-09T00:05:22.705Z,77.40
2023-01-09T00:07:51.477Z,77.40
2023-01-09T00:10:18.097Z,77.40
2023-01-09T00:12:46.988Z,77.40
2023-01-09T00:15:13.937Z,77.40
2023-01-09T00:17:40.605Z,77.40
2023-01-09T00:20:07.843Z,77.40
2023-01-09T00:22:34.587Z,77.40
2023-01-09T00:25:01.155Z,77.40
2023-01-09T00:27:30.646Z,77.40
2023-01-09T00:29:57.378Z,77.40
2023-01-09T00:32:24.277Z,77.40
2023-01-09T00:34:50.840Z,77.40
2023-01-09T00:37:17.391Z,77.40
2023-01-09T00:39:43.980Z,77.40
2023-01-09T00:42:12.359Z,77.40
2023-01-09T00:44:42.463Z,77.40
2023-01-09T00:47:11.644Z,77.40
2023-01-09T00:49:38.347Z,77.40
2023-01-09T00:52:06.587Z,77.40
2023-01-09T00:54:33.387Z,77.40
2023-01-09T00:57:00.075Z,77.40
2023-01-09T00:59:27.264Z,77.40
2023-01-09T01:01:56.337Z,77.40
2023-01-09T01:04:41.582Z,77.40
2023-01-09T01:07:26.909Z,77.40
2023-01-09T01:09:53.499Z,77.40
2023-01-09T01:12:22.444Z,77.40
2023-01-09T01:14:51.388Z,77.40
2023-01-09T01:17:18.037Z,77.40
2023-01-09T01:19:44.788Z,77.40
2023-01-09T01:22:11.719Z,77.40
2023-01-09T01:24:40.502Z,77.40
2023-01-09T01:27:09.213Z,77.40
2023-01-09T01:29:35.831Z,77.40
2023-01-09T01:32:02.680Z,77.40
2023-01-09T01:34:29.520Z,77.40
2023-01-09T01:36:56.092Z,77.40
2023-01-09T01:39:22.814Z,77.40
2023-01-09T01:41:54.039Z,77.40
2023-01-09T01:44:39.413Z,77.40
2023-01-09T01:47:06.278Z,77.40
2023-01-09T01:49:33.009Z,77.40
2023-01-09T01:51:59.683Z,77.40
2023-01-09T01:54:29.745Z,77.40
2023-01-09T01:56:58.547Z,77.40
2023-01-09T01:59:50.111Z,77.40
2023-01-09T02:02:22.584Z,77.40
2023-01-09T02:04:51.307Z,77.40
2023-01-09T02:07:17.900Z,77.40
2023-01-09T02:09:44.706Z,77.40
2023-01-09T02:12:23.664Z,77.40
2023-01-09T02:14:53.661Z,77.40
2023-01-09T02:17:26.178Z,77.40
2023-01-09T02:19:58.261Z,77.40
2023-01-09T02:22:24.810Z,77.40
2023-01-09T02:25:03.841Z,77.40
2023-01-09T02:27:49.204Z,77.40
2023-01-09T02:30:23.843Z,77.40
2023-01-09T02:32:55.655Z,77.40
2023-01-09T02:35:31.181Z,77.40
2023-01-09T02:38:06.907Z,77.40
2023-01-09T02:40:44.005Z,77.40
2023-01-09T02:43:11.399Z,77.40
2023-01-09T02:45:38.158Z,77.40
2023-01-09T02:48:04.908Z,77.40
2023-01-09T02:50:57.180Z,77.40
2023-01-09T02:53:42.870Z,77.40
2023-01-09T02:56:35.688Z,77.40
2023-01-09T02:59:08.058Z,77.40
2023-01-09T03:01:52.450Z,77.40
2023-01-09T03:04:25.040Z,77.40
2023-01-09T03:06:54.399Z,77.40
2023-01-09T03:09:22.914Z,77.40
2023-01-09T03:11:52.147Z,77.40
2023-01-09T03:14:21.273Z,77.40
2023-01-09T03:16:52.281Z,77.40
2023-01-09T03:19:21.477Z,77.40
2023-01-09T03:21:48.458Z,77.40
2023-01-09T03:24:15.266Z,77.40
2023-01-09T03:26:42.320Z,77.40
2023-01-09T03:29:11.535Z,77.40
2023-01-09T03:31:40.706Z,77.40
2023-01-09T03:34:07.315Z,77.40
2023-01-09T03:36:34.186Z,77.40
2023-01-09T03:39:00.931Z,77.40
2023-01-09T03:41:27.534Z,77.40
2023-01-09T03:43:54.465Z,77.40
2023-01-09T03:46:21.019Z,77.40
2023-01-09T03:48:48.416Z,77.40
2023-01-09T03:51:14.966Z,77.40
2023-01-09T03:53:43.857Z,77.40
2023-01-09T03:56:12.932Z,77.40
2023-01-09T03:58:39.481Z,77.40
2023-01-09T04:01:12.533Z,77.40
2023-01-09T04:03:39.547Z,77.40
2023-01-09T04:06:08.466Z,77.40
2023-01-09T04:08:35.201Z,77.40
2023-01-09T04:11:01.764Z,77.40
2023-01-09T04:13:30.535Z,77.40
2023-01-09T04:15:59.890Z,77.40
2023-01-09T04:18:28.980Z,77.40
2023-01-09T04:20:55.649Z,77.40
2023-01-09T04:23:24.667Z,77.40
2023-01-09T04:25:51.271Z,77.40
2023-01-09T04:28:17.876Z,77.40
2023-01-09T04:30:44.861Z,77.40
2023-01-09T04:33:11.420Z,77.40
2023-01-09T04:35:37.972Z,77.40
2023-01-09T04:38:04.566Z,77.40
2023-01-09T04:40:31.168Z,77.40
2023-01-09T04:42:57.707Z,77.40
2023-01-09T04:45:24.287Z,77.40
2023-01-09T04:47:53.378Z,77.40
2023-01-09T04:50:22.206Z,77.40
2023-01-09T04:52:50.990Z,77.40
2023-01-09T04:55:17.589Z,77.40
2023-01-09T04:57:44.133Z,77.40
2023-01-09T05:00:12.161Z,77.40
2023-01-09T05:02:42.173Z,77.40
2023-01-09T05:05:11.569Z,77.40
2023-01-09T05:07:40.908Z,77.40
2023-01-09T05:10:08.430Z,77.40
2023-01-09T05:12:36.304Z,77.40
2023-01-09T05:15:03.549Z,77.40
2023-01-09T05:17:30.184Z,77.40
2023-01-09T05:19:56.851Z,77.40
2023-01-09T05:22:23.432Z,77.40
2023-01-09T05:24:49.996Z,77.40
2023-01-09T05:27:16.542Z,77.40
2023-01-09T05:29:43.115Z,77.40
2023-01-09T05:32:09.770Z,77.40
2023-01-09T05:34:38.843Z,77.40
2023-01-09T05:37:05.594Z,77.40
2023-01-09T05:39:32.149Z,77.40
2023-01-09T05:41:58.803Z,77.40
2023-01-09T05:44:25.383Z,77.40
2023-01-09T05:46:51.955Z,77.40
2023-01-09T05:49:18.490Z,77.40
2023-01-09T05:51:45.127Z,77.40
2023-01-09T05:54:13.924Z,77.40
2023-01-09T05:56:42.939Z,77.40
2023-01-09T05:59:09.615Z,77.40
2023-01-09T06:01:36.403Z,77.40
2023-01-09T06:04:03.039Z,77.40
2023-01-09T06:06:29.894Z,77.40
2023-01-09T06:08:56.492Z,77.40
2023-01-09T06:11:24.254Z,77.40
2023-01-09T06:13:50.817Z,77.40
2023-01-09T06:16:17.596Z,77.40
2023-01-09T06:18:44.565Z,77.40
2023-01-09T06:21:11.106Z,77.40
2023-01-09T06:23:37.675Z,77.40
2023-01-09T06:26:04.340Z,77.40
2023-01-09T06:28:30.970Z,77.40
2023-01-09T06:30:57.582Z,77.40
2023-01-09T06:33:24.190Z,77.40
2023-01-09T06:35:50.749Z,77.40
2023-01-09T06:38:19.807Z,77.40
2023-01-09T06:40:46.670Z,77.40
2023-01-09T06:43:15.635Z,77.40
2023-01-09T06:45:45.035Z,77.40
2023-01-09T06:48:14.533Z,77.40
2023-01-09T06:50:41.369Z,77.40
2023-01-09T06:53:07.990Z,77.40
2023-01-09T06:55:34.603Z,77.40
2023-01-09T06:58:01.173Z,77.40
2023-01-09T07:00:27.786Z,77.40
2023-01-09T07:02:56.526Z,77.40
2023-01-09T07:05:23.194Z,77.40
2023-01-09T07:07:52.265Z,77.40
2023-01-09T07:10:26.169Z,77.40
2023-01-09T07:12:52.853Z,77.40
2023-01-09T07:15:19.787Z,77.40
2023-01-09T07:17:46.315Z,77.40
2023-01-09T07:20:13.260Z,77.40
2023-01-09T07:22:42.463Z,77.40
2023-01-09T07:25:09.029Z,77.40
2023-01-09T07:27:35.689Z,77.40
2023-01-09T07:30:02.516Z,77.40
2023-01-09T07:32:29.093Z,77.40
2023-01-09T07:34:58.160Z,77.40
2023-01-09T07:37:27.413Z,77.40
2023-01-09T07:39:53.977Z,77.40
2023-01-09T07:42:20.810Z,77.40
2023-01-09T07:44:47.511Z,77.40
2023-01-09T07:47:14.082Z,77.40
2023-01-09T07:49:40.749Z,77.40
2023-01-09T07:52:09.956Z,77.40
2023-01-09T07:54:36.730Z,77.40
2023-01-09T07:57:03.410Z,77.40
2023-01-09T07:59:32.636Z,77.40
2023-01-09T08:01:59.354Z,77.40
2023-01-09T08:04:26.019Z,77.40
2023-01-09T08:06:52.605Z,77.40
2023-01-09T08:09:19.318Z,77.40
2023-01-09T08:11:45.978Z,77.40
2023-01-09T08:14:15.027Z,77.40
2023-01-09T08:16:41.729Z,77.40
2023-01-09T08:19:12.065Z,77.40
2023-01-09T08:21:39.495Z,77.40
2023-01-09T08:24:06.288Z,77.40
2023-01-09T08:26:32.862Z,77.40
2023-01-09T08:28:59.463Z,77.40
2023-01-09T08:31:26.197Z,77.40
2023-01-09T08:33:52.961Z,77.40
2023-01-09T08:36:19.593Z,77.40
2023-01-09T08:38:47.504Z,77.40
2023-01-09T08:41:32.561Z,77.40
2023-01-09T08:44:17.764Z,77.40
2023-01-09T08:47:16.896Z,77.30
2023-01-09T08:49:43.474Z,77.30
2023-01-09T08:52:10.119Z,77.40
2023-01-09T08:54:40.000Z,77.40
2023-01-09T08:57:07.075Z,77.40
2023-01-09T08:59:34.075Z,77.30
2023-01-09T09:02:01.078Z,77.20
2023-01-09T09:04:27.944Z,77.20
2023-01-09T09:06:56.993Z,77.30
2023-01-09T09:09:25.114Z,77.30
2023-01-09T09:11:51.832Z,77.20
2023-01-09T09:14:37.254Z,77.10
2023-01-09T09:17:03.997Z,77.30
2023-01-09T09:19:30.646Z,77.20
2023-01-09T09:21:57.248Z,77.20
2023-01-09T09:24:26.442Z,77.20
2023-01-09T09:26:53.132Z,77.00
2023-01-09T09:29:20.653Z,77.00
2023-01-09T09:31:47.630Z,77.00
2023-01-09T09:34:14.360Z,76.80
2023-01-09T09:36:40.954Z,77.00
2023-01-09T09:39:08.512Z,77.10
2023-01-09T09:41:55.373Z,77.10
2023-01-09T09:44:43.682Z,77.10
2023-01-09T09:47:18.464Z,77.10
2023-01-09T09:50:00.194Z,77.10
2023-01-09T09:52:41.347Z,77.20
2023-01-09T09:55:17.316Z,77.20
2023-01-09T09:57:47.168Z,77.20
2023-01-09T10:00:21.089Z,77.10
2023-01-09T10:02:58.288Z,77.10
2023-01-09T10:05:30.058Z,77.10
2023-01-09T10:08:03.502Z,77.00
2023-01-09T10:10:43.911Z,77.00
2023-01-09T10:13:35.651Z,77.00
2023-01-09T10:16:05.116Z,77.20
2023-01-09T10:18:47.119Z,76.80
2023-01-09T10:21:20.462Z,76.70
2023-01-09T10:23:54.335Z,76.30
2023-01-09T10:26:43.255Z,76.10
2023-01-09T10:29:31.421Z,75.80
2023-01-09T10:32:06.344Z,75.50
2023-01-09T10:34:54.009Z,75.70
2023-01-09T10:37:23.537Z,75.90
2023-01-09T10:39:55.593Z,75.10
2023-01-09T10:42:30.270Z,75.50
2023-01-09T10:45:04.112Z,75.40
2023-01-09T10:47:32.972Z,74.40
2023-01-09T10:50:00.743Z,74.80
2023-01-09T10:52:34.714Z,74.00
2023-01-09T10:55:13.080Z,74.10
2023-01-09T10:57:39.625Z,74.30
2023-01-09T11:00:07.220Z,73.20
2023-01-09T11:02:35.090Z,73.50
2023-01-09T11:05:04.077Z,73.30
2023-01-09T11:07:32.876Z,73.30
2023-01-09T11:10:01.382Z,73.00
2023-01-09T11:12:33.879Z,73.70
2023-01-09T11:15:15.588Z,73.40
2023-01-09T11:17:45.187Z,73.60
2023-01-09T11:20:14.820Z,73.80
2023-01-09T11:22:45.255Z,74.00
2023-01-09T11:25:15.125Z,74.20
2023-01-09T11:27:42.315Z,73.90
2023-01-09T11:30:19.946Z,74.10
2023-01-09T11:32:47.140Z,74.10
2023-01-09T11:35:21.613Z,74.60
2023-01-09T11:37:49.175Z,74.60
2023-01-09T11:40:22.092Z,74.70
2023-01-09T11:43:04.528Z,74.50
2023-01-09T11:45:32.238Z,74.10
2023-01-09T11:48:03.826Z,73.70
2023-01-09T11:50:31.213Z,73.60
2023-01-09T11:53:13.151Z,74.30
2023-01-09T11:55:44.606Z,73.60
2023-01-09T11:58:15.032Z,73.40
2023-01-09T12:00:54.952Z,73.50
2023-01-09T12:03:38.803Z,73.90
2023-01-09T12:06:05.403Z,73.90
2023-01-09T12:08:58.475Z,74.20
2023-01-09T12:11:31.592Z,74.00
2023-01-09T12:14:03.448Z,74.40
2023-01-09T12:16:30.431Z,74.00
2023-01-09T12:19:02.358Z,74.40
2023-01-09T12:21:38.266Z,74.20
2023-01-09T12:24:23.661Z,73.90
2023-01-09T12:26:53.109Z,73.50
2023-01-09T12:29:33.180Z,73.80
2023-01-09T12:32:06.034Z,73.80
2023-01-09T12:34:45.933Z,74.20
2023-01-09T12:37:30.858Z,73.60
2023-01-09T12:39:57.469Z,73.70
2023-01-09T12:42:24.278Z,74.00
2023-01-09T12:44:54.732Z,74.30
2023-01-09T12:47:33.659Z,74.70
2023-01-09T12:50:21.436Z,75.20
2023-01-09T12:53:22.793Z,75.20
2023-01-09T12:56:03.723Z,75.80
2023-01-09T12:58:36.428Z,75.60
2023-01-09T13:01:04.648Z,75.60
2023-01-09T13:03:47.885Z,75.70
2023-01-09T13:06:17.012Z,75.90
2023-01-09T13:08:47.480Z,75.20
2023-01-09T13:11:20.659Z,75.00
2023-01-09T13:14:10.236Z,74.80
2023-01-09T13:16:41.861Z,75.20
2023-01-09T13:19:15.374Z,74.40
2023-01-09T13:21:44.522Z,74.70
2023-01-09T13:24:11.092Z,73.60
2023-01-09T13:26:43.681Z,73.20
2023-01-09T13:29:12.460Z,72.90
2023-01-09T13:31:46.446Z,73.60
2023-01-09T13:34:21.971Z,73.60
2023-01-09T13:36:50.605Z,73.70
2023-01-09T13:39:25.219Z,73.40
2023-01-09T13:42:12.159Z,73.80
2023-01-09T13:44:39.596Z,73.90
2023-01-09T13:47:17.321Z,73.40
2023-01-09T13:49:43.945Z,73.80
2023-01-09T13:52:28.158Z,74.20
2023-01-09T13:55:00.661Z,74.70
2023-01-09T13:57:30.380Z,75.10
2023-01-09T14:00:12.217Z,75.00
2023-01-09T14:02:38.783Z,74.10
2023-01-09T14:05:09.218Z,74.90
2023-01-09T14:07:38.662Z,74.60
2023-01-09T14:10:23.413Z,74.70
2023-01-09T14:12:50.749Z,74.70
2023-01-09T14:15:23.698Z,75.10
2023-01-09T14:17:58.831Z,75.30
2023-01-09T14:20:30.035Z,75.40
2023-01-09T14:25:47.676Z,75.70
2023-01-09T14:28:22.654Z,76.00
2023-01-09T14:30:55.026Z,75.90
2023-01-09T14:33:22.595Z,76.00
2023-01-09T14:35:58.174Z,75.70
2023-01-09T14:38:35.527Z,76.00
2023-01-09T14:41:18.434Z,75.60
2023-01-09T14:43:48.626Z,75.80
2023-01-09T14:46:17.040Z,75.50
2023-01-09T14:48:59.752Z,75.40
2023-01-09T14:51:27.686Z,75.50
2023-01-09T14:53:57.432Z,75.50
2023-01-09T14:56:28.698Z,75.40
2023-01-09T14:59:24.720Z,76.00
2023-01-09T15:01:55.359Z,76.80
2023-01-09T15:04:34.915Z,77.10
2023-01-09T15:07:03.053Z,77.20
2023-01-09T15:09:45.536Z,77.20
2023-01-09T15:12:16.593Z,77.30
2023-01-09T15:14:45.593Z,77.40
2023-01-09T15:17:25.908Z,77.40
2023-01-09T15:19:52.735Z,77.40
2023-01-09T15:22:22.426Z,77.40
2023-01-09T15:24:49.983Z,77.40
2023-01-09T15:27:19.066Z,77.40
2023-01-09T15:29:45.671Z,77.40
2023-01-09T15:32:34.859Z,77.40
2023-01-09T15:35:01.480Z,77.40
2023-01-09T15:37:30.740Z,77.40
2023-01-09T15:39:58.426Z,77.40
2023-01-09T15:42:45.381Z,77.40
2023-01-09T15:45:32.929Z,77.40
2023-01-09T15:48:33.214Z,77.40
2023-01-09T15:51:06.012Z,77.40
2023-01-09T15:53:32.964Z,77.40
2023-01-09T15:56:02.605Z,77.40
2023-01-09T15:58:32.286Z,77.40
2023-01-09T16:01:06.985Z,77.40
2023-01-09T16:03:38.504Z,77.40
2023-01-09T16:06:09.439Z,77.40
2023-01-09T16:08:42.238Z,77.40
2023-01-09T16:11:10.942Z,77.40
2023-01-09T16:13:39.393Z,77.40
2023-01-09T16:16:08.492Z,77.40
2023-01-09T16:18:37.298Z,77.40
2023-01-09T16:21:03.890Z,77.40
2023-01-09T16:23:32.164Z,77.40
2023-01-09T16:26:12.485Z,77.40
2023-01-09T16:28:42.696Z,77.40
2023-01-09T16:31:28.453Z,77.40
2023-01-09T16:34:06.391Z,77.40
2023-01-09T16:36:38.635Z,77.40
2023-01-09T16:39:05.324Z,77.40
2023-01-09T16:41:50.736Z,77.40
2023-01-09T16:44:19.193Z,77.40
2023-01-09T16:46:45.917Z,77.40
2023-01-09T16:49:19.931Z,77.40
2023-01-09T16:51:47.059Z,77.40
2023-01-09T16:54:16.363Z,77.40
2023-01-09T16:56:43.898Z,77.40
2023-01-09T16:59:14.246Z,77.40
2023-01-09T17:01:41.584Z,77.40
2023-01-09T17:04:10.727Z,77.40
2023-01-09T17:06:39.023Z,77.40
2023-01-09T17:09:06.322Z,77.40
2023-01-09T17:11:32.877Z,77.40
2023-01-09T17:13:59.967Z,77.40
2023-01-09T17:16:28.875Z,77.40
2023-01-09T17:18:55.766Z,77.40
2023-01-09T17:21:23.849Z,77.40
2023-01-09T17:24:09.336Z,77.40
2023-01-09T17:26:55.126Z,77.40
2023-01-09T17:29:21.914Z,77.40
2023-01-09T17:31:48.516Z,77.40
2023-01-09T17:34:15.185Z,77.40
2023-01-09T17:36:46.018Z,77.40
2023-01-09T17:39:13.616Z,77.40
2023-01-09T17:41:40.411Z,77.40
2023-01-09T17:44:07.054Z,77.40
2023-01-09T17:46:39.678Z,77.40
2023-01-09T17:49:06.679Z,77.40
2023-01-09T17:51:33.363Z,77.40
2023-01-09T17:54:03.831Z,77.40
2023-01-09T17:56:33.187Z,77.40
2023-01-09T17:59:01.927Z,77.40
2023-01-09T18:01:30.968Z,77.40
2023-01-09T18:03:59.852Z,77.40
2023-01-09T18:06:26.430Z,77.40
2023-01-09T18:08:53.337Z,77.40
2023-01-09T18:11:20.610Z,77.40
2023-01-09T18:13:47.940Z,77.40
2023-01-09T18:16:17.559Z,77.40
2023-01-09T18:18:47.283Z,77.40
2023-01-09T18:21:18.867Z,77.40
2023-01-09T18:23:48.795Z,77.40
2023-01-09T18:26:22.092Z,77.40
2023-01-09T18:28:52.091Z,77.40
2023-01-09T18:31:22.729Z,77.40
2023-01-09T18:33:56.490Z,77.40
2023-01-09T18:36:29.210Z,77.40
2023-01-09T18:38:56.848Z,77.40
2023-01-09T18:41:23.464Z,77.40
2023-01-09T18:43:53.140Z,77.40
2023-01-09T18:46:25.607Z,77.40
2023-01-09T18:48:56.039Z,77.40
2023-01-09T18:51:23.923Z,77.40
2023-01-09T18:53:50.765Z,77.40
2023-01-09T18:56:19.128Z,77.40
2023-01-09T18:58:46.126Z,77.40
2023-01-09T19:01:14.416Z,77.40
2023-01-09T19:03:43.557Z,77.40
2023-01-09T19:06:13.038Z,77.40
2023-01-09T19:08:40.797Z,77.40
2023-01-09T19:11:09.853Z,77.40
2023-01-09T19:13:37.490Z,77.40
2023-01-09T19:16:04.898Z,77.40
2023-01-09T19:18:39.301Z,77.40
2023-01-09T19:21:19.513Z,77.40
2023-01-09T19:23:47.109Z,77.40
2023-01-09T19:26:16.153Z,77.40
2023-01-09T19:28:45.462Z,77.40
2023-01-09T19:31:12.869Z,77.40
2023-01-09T19:33:41.879Z,77.40
2023-01-09T19:36:08.593Z,77.40
2023-01-09T19:38:35.349Z,77.40
2023-01-09T19:41:09.163Z,77.40
2023-01-09T19:43:39.891Z,77.40
2023-01-09T19:46:08.327Z,77.40
2023-01-09T19:48:34.982Z,77.40
2023-01-09T19:51:05.377Z,77.40
2023-01-09T19:53:32.825Z,77.40
2023-01-09T19:56:06.315Z,77.40
2023-01-09T19:58:35.580Z,77.40
2023-01-09T20:01:06.057Z,77.40
2023-01-09T20:03:32.773Z,77.40
2023-01-09T20:06:08.753Z,77.40
2023-01-09T20:08:35.560Z,77.40
2023-01-09T20:11:03.494Z,77.40
2023-01-09T20:13:32.457Z,77.40
2023-01-09T20:16:02.162Z,77.40
2023-01-09T20:18:29.455Z,77.40
2023-01-09T20:20:58.727Z,77.40
2023-01-09T20:23:27.459Z,77.40
2023-01-09T20:25:54.975Z,77.40
2023-01-09T20:28:21.765Z,77.40
2023-01-09T20:30:51.462Z,77.40
2023-01-09T20:33:20.983Z,77.40
2023-01-09T20:35:47.654Z,77.40
2023-01-09T20:38:14.512Z,77.40
2023-01-09T20:40:44.097Z,77.40
2023-01-09T20:43:12.336Z,77.40
2023-01-09T20:45:39.769Z,77.40
2023-01-09T20:48:06.524Z,77.40
2023-01-09T20:50:35.495Z,77.40
2023-01-09T20:53:02.836Z,77.40
2023-01-09T20:55:29.443Z,77.40
2023-01-09T20:57:58.127Z,77.40
2023-01-09T21:00:27.468Z,77.40
2023-01-09T21:02:56.773Z,77.40
2023-01-09T21:05:25.735Z,77.40
2023-01-09T21:07:52.338Z,77.40
2023-01-09T21:10:19.039Z,77.40
2023-01-09T21:12:45.632Z,77.40
2023-01-09T21:15:17.848Z,77.40
2023-01-09T21:17:44.488Z,77.40
2023-01-09T21:20:12.707Z,77.40
2023-01-09T21:22:39.613Z,77.40
2023-01-09T21:25:09.183Z,77.40
2023-01-09T21:27:40.670Z,77.40
2023-01-09T21:30:09.045Z,77.40
2023-01-09T21:32:35.619Z,77.40
2023-01-09T21:35:05.850Z,77.40
2023-01-09T21:37:33.401Z,77.40
2023-01-09T21:40:00.530Z,77.40
2023-01-09T21:42:46.851Z,77.40
2023-01-09T21:45:32.786Z,77.40
2023-01-09T21:47:59.379Z,77.40
2023-01-09T21:50:25.901Z,77.40
2023-01-09T21:52:52.470Z,77.40
2023-01-09T21:55:19.204Z,77.40
2023-01-09T21:57:45.767Z,77.40
2023-01-09T22:00:12.651Z,77.40
2023-01-09T22:02:42.429Z,77.40
2023-01-09T22:05:09.133Z,77.40
2023-01-09T22:07:35.857Z,77.40
2023-01-09T22:10:04.922Z,77.40
2023-01-09T22:12:31.474Z,77.40
2023-01-09T22:14:58.114Z,77.40
2023-01-09T22:17:25.212Z,77.40
2023-01-09T22:19:51.843Z,77.40
2023-01-09T22:22:18.415Z,77.40
2023-01-09T22:24:45.299Z,77.40
2023-01-09T22:27:13.977Z,77.40
2023-01-09T22:29:40.601Z,77.40
2023-01-09T22:32:08.503Z,77.40
2023-01-09T22:34:35.273Z,77.40
2023-01-09T22:37:07.818Z,77.40
2023-01-09T22:39:34.644Z,77.40
2023-01-09T22:42:01.464Z,77.40
2023-01-09T22:44:30.489Z,77.40
2023-01-09T22:46:58.270Z,77.40
2023-01-09T22:49:26.418Z,77.40
2023-01-09T22:51:56.927Z,77.40
2023-01-09T22:54:23.497Z,77.40
2023-01-09T22:56:52.652Z,77.40
2023-01-09T22:59:19.248Z,77.40
2023-01-09T23:01:47.966Z,77.40
2023-01-09T23:04:14.783Z,77.40
2023-01-09T23:06:41.408Z,77.40
2023-01-09T23:09:08.033Z,77.40
2023-01-09T23:11:53.419Z,77.40
2023-01-09T23:14:22.214Z,77.40
2023-01-09T23:16:48.909Z,77.40
2023-01-09T23:19:17.873Z,77.40
2023-01-09T23:21:44.609Z,77.40
2023-01-09T23:24:14.502Z,77.40
2023-01-09T23:26:42.570Z,77.40
2023-01-09T23:29:09.637Z,77.40
2023-01-09T23:31:36.579Z,77.40
2023-01-09T23:34:03.880Z,77.40
2023-01-09T23:36:30.569Z,77.40
2023-01-09T23:38:57.118Z,77.40
2023-01-09T23:41:43.678Z,77.40
2023-01-09T23:44:10.230Z,77.40
2023-01-09T23:46:36.828Z,77.40
2023-01-09T23:49:05.661Z,77.40
2023-01-09T23:51:32.487Z,77.40
2023-01-09T23:53:59.129Z,77.40
2023-01-09T23:56:25.755Z,77.40
2023-01-09T23:58:54.416Z,77.40
